Time;durP1;ratioP1;P1;durP2;ratioP2;P2;SDS_P1;SDS_P2;PMS_P1;PMS_P2;Temp;Humidity;BMP_temperature;BMP_pressure;BME280_temperature;BME280_humidity;BME280_pressure;Samples;Min_cycle;Max_cycle;Signal;HPM_P1;HPM_P2
2023/07/29 00:00:27;;;;;;;4.05;2.10;;;;;;;;;;10419329;27;20071;-63
2023/07/29 00:05:26;;;;;;;2.10;1.90;;;;;;;;;;10416542;27;20078;-63
2023/07/29 00:10:24;;;;;;;2.05;1.85;;;;;;;;;;10417360;27;20067;-63
2023/07/29 00:15:24;;;;;;;3.50;1.88;;;;;;;;;;10418458;27;20104;-63
2023/07/29 00:20:22;;;;;;;2.22;1.95;;;;;;;;;;10416361;27;20075;-63
2023/07/29 00:25:21;;;;;;;2.10;1.80;;;;;;;;;;10414026;27;20480;-62
2023/07/29 00:30:19;;;;;;;2.38;2.17;;;;;;;;;;10421136;27;20067;-63
2023/07/29 00:35:18;;;;;;;2.63;2.03;;;;;;;;;;10417792;27;20068;-62
2023/07/29 00:40:20;;;;;;;2.67;2.00;;;;;;;;;;10415527;27;20078;-62
2023/07/29 00:45:19;;;;;;;4.38;2.05;;;;;;;;;;10401583;27;20075;-63
2023/07/29 00:50:19;;;;;;;3.90;1.92;;;;;;;;;;10399897;27;20082;-62
2023/07/29 00:55:17;;;;;;;5.60;2.22;;;;;;;;;;10372313;28;20098;-63
2023/07/29 01:00:16;;;;;;;4.68;2.00;;;;;;;;;;10371794;28;20071;-62
2023/07/29 01:05:16;;;;;;;3.15;2.35;;;;;;;;;;10371384;28;20688;-62
2023/07/29 01:10:20;;;;;;;4.05;2.30;;;;;;;;;;10376313;28;20653;-62
2023/07/29 01:15:21;;;;;;;3.75;2.67;;;;;;;;;;10374382;28;20075;-63
2023/07/29 01:20:20;;;;;;;4.97;2.20;;;;;;;;;;10372902;28;20501;-62
2023/07/29 01:25:20;;;;;;;5.47;1.80;;;;;;;;;;10371763;28;20078;-62
2023/07/29 01:30:18;;;;;;;3.63;2.30;;;;;;;;;;10374983;28;20533;-63
2023/07/29 01:35:20;;;;;;;3.38;2.10;;;;;;;;;;10372818;28;20482;-62
2023/07/29 01:40:20;;;;;;;4.72;2.03;;;;;;;;;;10373354;28;20067;-63
2023/07/29 01:45:19;;;;;;;2.30;1.90;;;;;;;;;;10372187;28;20490;-63
2023/07/29 01:50:17;;;;;;;2.35;1.83;;;;;;;;;;10375027;28;20123;-63
2023/07/29 01:55:15;;;;;;;2.90;2.30;;;;;;;;;;10368014;28;20087;-63
2023/07/29 02:00:16;;;;;;;2.30;2.10;;;;;;;;;;10374117;28;20063;-61
2023/07/29 02:05:16;;;;;;;2.17;1.95;;;;;;;;;;10386704;27;20169;-62
2023/07/29 02:10:14;;;;;;;2.05;1.92;;;;;;;;;;10367691;28;20505;-62
2023/07/29 02:15:12;;;;;;;4.47;2.00;;;;;;;;;;10371754;28;20095;-62
2023/07/29 02:20:13;;;;;;;3.92;2.63;;;;;;;;;;10372052;28;20091;-63
2023/07/29 02:25:11;;;;;;;3.00;2.17;;;;;;;;;;10367252;28;20540;-62
2023/07/29 02:30:10;;;;;;;4.70;2.38;;;;;;;;;;10372016;28;20456;-63
2023/07/29 02:35:09;;;;;;;2.42;2.22;;;;;;;;;;10370611;28;20074;-62
2023/07/29 02:40:10;;;;;;;2.90;2.20;;;;;;;;;;10370152;28;20071;-62
2023/07/29 02:45:10;;;;;;;8.65;2.15;;;;;;;;;;10379521;28;20500;-62
2023/07/29 02:50:09;;;;;;;29.58;4.20;;;;;;;;;;10374244;28;20055;-62
2023/07/29 02:55:09;;;;;;;5.50;2.53;;;;;;;;;;10399815;28;20075;-62
2023/07/29 03:00:08;;;;;;;2.53;2.17;;;;;;;;;;10394308;28;20090;-62
2023/07/29 03:05:06;;;;;;;3.38;2.17;;;;;;;;;;10412418;28;20082;-62
2023/07/29 03:10:05;;;;;;;2.25;1.95;;;;;;;;;;10388808;28;20066;-62
2023/07/29 03:15:06;;;;;;;6.47;2.50;;;;;;;;;;10413479;28;20064;-63
2023/07/29 03:20:04;;;;;;;5.97;2.25;;;;;;;;;;10413053;28;20089;-63
2023/07/29 03:25:03;;;;;;;4.38;2.55;;;;;;;;;;10418361;27;20067;-63
2023/07/29 03:30:01;;;;;;;2.88;2.08;;;;;;;;;;10420109;27;20060;-63
2023/07/29 03:35:01;;;;;;;5.28;2.53;;;;;;;;;;10408249;27;20089;-62
2023/07/29 03:39:59;;;;;;;3.17;2.10;;;;;;;;;;10418112;27;20082;-62
2023/07/29 03:45:02;;;;;;;5.20;2.42;;;;;;;;;;10403840;27;20055;-63
2023/07/29 03:50:01;;;;;;;3.05;2.22;;;;;;;;;;10399000;27;20051;-62
2023/07/29 03:55:00;;;;;;;5.90;2.42;;;;;;;;;;10378727;28;20099;-62
2023/07/29 03:59:58;;;;;;;3.22;2.45;;;;;;;;;;10393408;27;20532;-62
2023/07/29 04:04:56;;;;;;;3.40;2.55;;;;;;;;;;10375794;28;20044;-62
2023/07/29 04:09:56;;;;;;;3.00;2.20;;;;;;;;;;10375639;28;20542;-62
2023/07/29 04:14:54;;;;;;;5.07;2.17;;;;;;;;;;10374761;28;20044;-63
2023/07/29 04:19:53;;;;;;;6.78;2.17;;;;;;;;;;10375315;28;20087;-62
2023/07/29 04:24:56;;;;;;;3.85;2.40;;;;;;;;;;10373913;28;20075;-62
2023/07/29 04:29:54;;;;;;;2.67;2.13;;;;;;;;;;10375926;28;20064;-62
2023/07/29 04:34:52;;;;;;;3.03;2.30;;;;;;;;;;10373759;28;20051;-63
2023/07/29 04:39:51;;;;;;;2.78;2.38;;;;;;;;;;10372829;28;20078;-61
2023/07/29 04:44:50;;;;;;;4.55;2.92;;;;;;;;;;10375790;28;20064;-62
2023/07/29 04:49:48;;;;;;;5.68;2.42;;;;;;;;;;10374451;28;20074;-62
2023/07/29 04:54:47;;;;;;;5.60;3.13;;;;;;;;;;10399641;27;20508;-62
2023/07/29 04:59:45;;;;;;;2.15;1.95;;;;;;;;;;10415447;27;20520;-62
2023/07/29 05:04:44;;;;;;;2.78;2.25;;;;;;;;;;10417462;27;20082;-62
2023/07/29 05:09:43;;;;;;;7.63;2.25;;;;;;;;;;10416424;27;20487;-62
2023/07/29 05:14:41;;;;;;;3.35;2.30;;;;;;;;;;10398619;27;20079;-62
2023/07/29 05:19:39;;;;;;;2.50;2.20;;;;;;;;;;10396708;27;20511;-62
2023/07/29 05:24:39;;;;;;;2.13;1.92;;;;;;;;;;10399205;27;20075;-64
2023/07/29 05:29:37;;;;;;;2.70;2.47;;;;;;;;;;10409285;27;20070;-62
2023/07/29 05:34:36;;;;;;;3.20;2.10;;;;;;;;;;10404105;27;20074;-62
2023/07/29 05:39:34;;;;;;;3.60;2.30;;;;;;;;;;10413744;27;20063;-61
2023/07/29 05:44:33;;;;;;;2.90;2.15;;;;;;;;;;10396147;27;20398;-62
2023/07/29 05:49:35;;;;;;;4.35;2.38;;;;;;;;;;10391973;27;20047;-62
2023/07/29 05:54:33;;;;;;;5.55;2.30;;;;;;;;;;10402308;27;20091;-62
2023/07/29 05:59:31;;;;;;;4.28;3.35;;;;;;;;;;10412333;27;20077;-63
2023/07/29 06:04:31;;;;;;;2.75;2.45;;;;;;;;;;10399682;27;20051;-62
2023/07/29 06:09:30;;;;;;;5.93;2.85;;;;;;;;;;10393029;27;20621;-62
2023/07/29 06:14:28;;;;;;;4.47;2.83;;;;;;;;;;10413489;27;20082;-62
2023/07/29 06:19:26;;;;;;;5.55;2.22;;;;;;;;;;10413147;27;20070;-61
2023/07/29 06:24:26;;;;;;;9.07;2.35;;;;;;;;;;10414594;27;20054;-62
2023/07/29 06:29:24;;;;;;;3.28;2.97;;;;;;;;;;10413559;27;20075;-62
2023/07/29 06:34:22;;;;;;;5.82;2.53;;;;;;;;;;10411008;28;20071;-62
2023/07/29 06:39:23;;;;;;;4.40;3.20;;;;;;;;;;10410001;28;20075;-62
2023/07/29 06:44:23;;;;;;;6.43;3.20;;;;;;;;;;10411429;28;20093;-61
2023/07/29 06:49:21;;;;;;;2.80;2.40;;;;;;;;;;10410537;28;20083;-61
2023/07/29 06:54:19;;;;;;;4.43;3.03;;;;;;;;;;10411728;28;20519;-62
2023/07/29 06:59:18;;;;;;;4.88;2.53;;;;;;;;;;10417377;27;20083;-61
2023/07/29 07:04:17;;;;;;;3.13;2.55;;;;;;;;;;10415271;27;20067;-62
2023/07/29 07:09:15;;;;;;;4.85;3.00;;;;;;;;;;10418923;27;20066;-62
2023/07/29 07:14:14;;;;;;;3.75;2.88;;;;;;;;;;10415516;27;20071;-62
2023/07/29 07:19:12;;;;;;;3.90;2.50;;;;;;;;;;10420833;27;20071;-62
2023/07/29 07:24:11;;;;;;;6.18;3.45;;;;;;;;;;10417583;27;20077;-62
2023/07/29 07:29:10;;;;;;;5.03;2.25;;;;;;;;;;10418799;27;20074;-62
2023/07/29 07:34:08;;;;;;;2.50;2.30;;;;;;;;;;10418267;27;20071;-61
2023/07/29 07:39:06;;;;;;;3.03;2.47;;;;;;;;;;10417677;27;20083;-62
2023/07/29 07:44:06;;;;;;;7.25;2.40;;;;;;;;;;10421518;27;20090;-62
2023/07/29 07:49:04;;;;;;;6.07;3.92;;;;;;;;;;10414155;27;20079;-62
2023/07/29 07:54:02;;;;;;;2.78;2.42;;;;;;;;;;10417473;27;20083;-61
2023/07/29 07:59:00;;;;;;;4.00;3.70;;;;;;;;;;10419135;27;20075;-61
2023/07/29 08:04:00;;;;;;;3.67;2.60;;;;;;;;;;10416481;27;20070;-62
2023/07/29 08:08:58;;;;;;;4.60;2.00;;;;;;;;;;10416370;27;20105;-60
2023/07/29 08:13:57;;;;;;;3.40;3.10;;;;;;;;;;10416088;27;20058;-62
2023/07/29 08:18:55;;;;;;;5.40;2.15;;;;;;;;;;10416415;27;20070;-61
2023/07/29 08:23:54;;;;;;;5.18;4.55;;;;;;;;;;10417577;27;20482;-62
2023/07/29 08:28:53;;;;;;;2.88;2.58;;;;;;;;;;10417052;27;20059;-61
2023/07/29 08:33:52;;;;;;;5.05;2.85;;;;;;;;;;10414038;27;20090;-62
2023/07/29 08:38:50;;;;;;;3.50;3.13;;;;;;;;;;10412668;27;20082;-62
2023/07/29 08:43:53;;;;;;;4.20;2.17;;;;;;;;;;10413909;27;20483;-63
2023/07/29 08:48:52;;;;;;;6.15;2.72;;;;;;;;;;10402802;27;20079;-62
2023/07/29 08:53:50;;;;;;;4.38;2.88;;;;;;;;;;10411592;27;20079;-63
2023/07/29 08:58:49;;;;;;;2.35;2.15;;;;;;;;;;10415449;27;20429;-63
2023/07/29 09:03:48;;;;;;;3.67;2.53;;;;;;;;;;10415499;27;20531;-63
2023/07/29 09:08:47;;;;;;;2.85;2.17;;;;;;;;;;10416271;27;20067;-63
2023/07/29 09:13:45;;;;;;;2.40;2.20;;;;;;;;;;10415775;27;20744;-62
2023/07/29 09:18:44;;;;;;;2.63;1.92;;;;;;;;;;10415738;27;20075;-63
2023/07/29 09:23:44;;;;;;;2.45;2.25;;;;;;;;;;10412272;27;20070;-62
2023/07/29 09:28:45;;;;;;;2.88;2.15;;;;;;;;;;10403033;27;20093;-62
2023/07/29 09:33:43;;;;;;;14.30;9.30;;;;;;;;;;10413327;27;20093;-63
2023/07/29 09:38:41;;;;;;;2.35;1.88;;;;;;;;;;10409672;27;20075;-63
2023/07/29 09:43:41;;;;;;;5.20;2.40;;;;;;;;;;10413559;27;20071;-62
2023/07/29 09:48:41;;;;;;;3.60;2.15;;;;;;;;;;10415006;27;20095;-62
2023/07/29 09:53:43;;;;;;;5.05;2.00;;;;;;;;;;10406205;27;20563;-62
2023/07/29 09:58:46;;;;;;;4.55;2.25;;;;;;;;;;10404600;27;20086;-62
2023/07/29 10:03:45;;;;;;;5.20;2.60;;;;;;;;;;10411742;27;20071;-62
2023/07/29 10:08:45;;;;;;;2.75;2.53;;;;;;;;;;10410412;27;20131;-62
2023/07/29 10:13:43;;;;;;;3.92;2.05;;;;;;;;;;10406036;27;20075;-62
2023/07/29 10:19:03;;;;;;;3.47;1.63;;;;;;;;;;10412048;27;20083;-62
2023/07/29 10:24:05;;;;;;;2.28;2.03;;;;;;;;;;10391948;27;20067;-63
2023/07/29 10:29:05;;;;;;;1.73;1.60;;;;;;;;;;10387457;27;20051;-62
2023/07/29 10:34:04;;;;;;;1.92;1.83;;;;;;;;;;10405861;27;20082;-63
2023/07/29 10:39:03;;;;;;;2.38;2.17;;;;;;;;;;10408906;28;20074;-63
2023/07/29 10:44:01;;;;;;;2.17;1.77;;;;;;;;;;10412182;28;20078;-63
2023/07/29 10:48:59;;;;;;;3.70;2.00;;;;;;;;;;10407294;28;20075;-62
2023/07/29 10:54:00;;;;;;;2.35;2.15;;;;;;;;;;10413157;28;20079;-63
2023/07/29 10:59:03;;;;;;;2.88;2.55;;;;;;;;;;10412296;28;20074;-62
2023/07/29 11:04:19;;;;;;;2.50;2.30;;;;;;;;;;10411098;28;20145;-62
2023/07/29 11:09:33;;;;;;;3.78;1.95;;;;;;;;;;10411823;28;20071;-62
2023/07/29 11:14:32;;;;;;;1.73;1.63;;;;;;;;;;10410625;28;20067;-62
2023/07/29 11:19:30;;;;;;;2.25;2.03;;;;;;;;;;10411437;28;20078;-63
2023/07/29 11:24:29;;;;;;;1.95;1.80;;;;;;;;;;10407925;28;20071;-62
2023/07/29 11:29:27;;;;;;;3.08;1.80;;;;;;;;;;10414822;28;20059;-63
2023/07/29 11:34:33;;;;;;;1.77;1.58;;;;;;;;;;10404277;28;20074;-62
2023/07/29 11:39:32;;;;;;;2.40;1.67;;;;;;;;;;10411037;28;20067;-62
2023/07/29 11:44:30;;;;;;;2.95;2.00;;;;;;;;;;10397791;27;20074;-62
2023/07/29 11:49:28;;;;;;;3.40;1.90;;;;;;;;;;10418745;27;20488;-61
2023/07/29 11:54:28;;;;;;;2.63;1.98;;;;;;;;;;10414236;27;20087;-62
2023/07/29 11:59:26;;;;;;;3.17;2.10;;;;;;;;;;10411781;27;20082;-62
2023/07/29 12:04:24;;;;;;;2.50;1.85;;;;;;;;;;10419440;27;20063;-62
2023/07/29 12:09:23;;;;;;;4.20;2.00;;;;;;;;;;10417822;27;20074;-64
2023/07/29 12:14:23;;;;;;;2.30;1.58;;;;;;;;;;10415658;27;20067;-62
2023/07/29 12:19:22;;;;;;;2.60;1.65;;;;;;;;;;10414976;27;20090;-62
2023/07/29 12:24:23;;;;;;;2.22;1.83;;;;;;;;;;10415844;27;20484;-62
2023/07/29 12:29:22;;;;;;;1.83;1.67;;;;;;;;;;10409837;27;20146;-62
2023/07/29 12:34:23;;;;;;;6.47;2.63;;;;;;;;;;10413866;27;20063;-63
2023/07/29 12:39:22;;;;;;;3.78;1.80;;;;;;;;;;10416163;27;20082;-62
2023/07/29 12:44:21;;;;;;;2.53;1.80;;;;;;;;;;10417097;27;20562;-62
2023/07/29 12:49:28;;;;;;;3.47;1.80;;;;;;;;;;10414728;27;20082;-62
2023/07/29 12:54:26;;;;;;;3.80;2.30;;;;;;;;;;10402122;27;20082;-62
2023/07/29 12:59:25;;;;;;;2.78;1.92;;;;;;;;;;10413279;27;20074;-62
2023/07/29 13:04:26;;;;;;;3.47;1.70;;;;;;;;;;10410287;27;20071;-62
2023/07/29 13:09:24;;;;;;;1.65;1.55;;;;;;;;;;10416166;27;20464;-63
2023/07/29 13:14:23;;;;;;;6.38;2.40;;;;;;;;;;10413757;27;20074;-63
2023/07/29 13:19:21;;;;;;;2.20;2.00;;;;;;;;;;10414099;27;20082;-62
2023/07/29 13:24:20;;;;;;;3.88;2.03;;;;;;;;;;10415173;27;20071;-61
2023/07/29 13:29:19;;;;;;;3.53;1.95;;;;;;;;;;10414475;27;20161;-62
2023/07/29 13:34:17;;;;;;;2.53;2.22;;;;;;;;;;10410017;27;20070;-63
2023/07/29 13:39:16;;;;;;;2.60;1.90;;;;;;;;;;10407405;27;20070;-63
2023/07/29 13:44:15;;;;;;;3.47;2.13;;;;;;;;;;10413611;27;20090;-63
2023/07/29 13:49:13;;;;;;;2.80;2.17;;;;;;;;;;10414745;27;20078;-61
2023/07/29 13:54:12;;;;;;;3.15;2.40;;;;;;;;;;10410017;27;20079;-61
2023/07/29 13:59:10;;;;;;;4.75;1.58;;;;;;;;;;10396713;27;20073;-61
2023/07/29 14:04:09;;;;;;;6.50;2.10;;;;;;;;;;10407199;27;20075;-62
2023/07/29 14:09:08;;;;;;;2.38;1.73;;;;;;;;;;10413554;27;20078;-62
2023/07/29 14:14:06;;;;;;;3.40;2.42;;;;;;;;;;10403930;27;20078;-61
2023/07/29 14:19:04;;;;;;;4.72;2.20;;;;;;;;;;10406857;27;20075;-62
2023/07/29 14:24:04;;;;;;;2.42;2.03;;;;;;;;;;10415169;27;20067;-63
2023/07/29 14:29:02;;;;;;;3.38;2.30;;;;;;;;;;10412801;27;20075;-61
2023/07/29 14:34:00;;;;;;;2.28;2.00;;;;;;;;;;10409585;27;20111;-62
2023/07/29 14:39:01;;;;;;;2.42;2.22;;;;;;;;;;10410467;28;20078;-62
2023/07/29 14:44:01;;;;;;;8.20;3.30;;;;;;;;;;10411281;28;20094;-63
2023/07/29 14:49:00;;;;;;;1.98;1.77;;;;;;;;;;10412235;28;20082;-62
2023/07/29 14:53:58;;;;;;;4.43;2.47;;;;;;;;;;10406221;28;20548;-61
2023/07/29 14:58:57;;;;;;;3.92;3.53;;;;;;;;;;10407656;28;20073;-63
2023/07/29 15:03:56;;;;;;;5.25;2.45;;;;;;;;;;10410024;28;20082;-63
2023/07/29 15:08:55;;;;;;;5.03;4.03;;;;;;;;;;10413238;28;20067;-61
2023/07/29 15:13:53;;;;;;;12.50;6.28;;;;;;;;;;10411277;28;20070;-62
2023/07/29 15:18:51;;;;;;;8.63;7.72;;;;;;;;;;10414343;27;20468;-62
2023/07/29 15:23:51;;;;;;;5.50;3.08;;;;;;;;;;10419361;27;20085;-61
2023/07/29 15:28:49;;;;;;;5.53;4.80;;;;;;;;;;10419676;27;20075;-61
2023/07/29 15:33:47;;;;;;;10.13;7.05;;;;;;;;;;10418311;27;20075;-63
2023/07/29 15:38:45;;;;;;;9.60;4.45;;;;;;;;;;10419215;27;20068;-61
2023/07/29 15:43:45;;;;;;;3.42;3.10;;;;;;;;;;10420092;27;20531;-61
2023/07/29 15:48:43;;;;;;;5.65;3.78;;;;;;;;;;10412572;27;20074;-61
2023/07/29 15:53:42;;;;;;;7.40;3.47;;;;;;;;;;10419512;27;20488;-62
2023/07/29 15:58:40;;;;;;;6.90;3.50;;;;;;;;;;10415865;27;20535;-64
2023/07/29 16:03:40;;;;;;;5.80;4.65;;;;;;;;;;10417739;27;20059;-61
2023/07/29 16:08:39;;;;;;;6.65;6.10;;;;;;;;;;10418344;27;20769;-61
2023/07/29 16:13:37;;;;;;;3.33;3.03;;;;;;;;;;10417839;27;20098;-62
2023/07/29 16:18:36;;;;;;;16.25;9.57;;;;;;;;;;10414297;27;20059;-63
2023/07/29 16:23:35;;;;;;;12.52;11.20;;;;;;;;;;10416713;27;20059;-63
2023/07/29 16:28:33;;;;;;;64.35;58.33;;;;;;;;;;10417667;27;20074;-61
2023/07/29 16:33:32;;;;;;;21.80;12.20;;;;;;;;;;10417700;27;20078;-62
2023/07/29 16:38:30;;;;;;;9.55;3.78;;;;;;;;;;10415718;27;20094;-62
2023/07/29 16:43:30;;;;;;;7.18;5.00;;;;;;;;;;10415464;27;20075;-62
2023/07/29 16:48:28;;;;;;;9.02;4.50;;;;;;;;;;10398229;27;20506;-61
2023/07/29 16:53:26;;;;;;;4.15;3.25;;;;;;;;;;10414718;27;20087;-62
2023/07/29 16:58:24;;;;;;;25.35;22.83;;;;;;;;;;10416645;27;20082;-62
2023/07/29 17:03:24;;;;;;;51.80;46.67;;;;;;;;;;10415120;27;20535;-61
2023/07/29 17:08:22;;;;;;;26.70;21.73;;;;;;;;;;10411270;27;20046;-62
2023/07/29 17:13:20;;;;;;;24.25;19.95;;;;;;;;;;10414633;27;20168;-62
2023/07/29 17:18:19;;;;;;;66.32;59.55;;;;;;;;;;10414648;27;20055;-62
2023/07/29 17:23:20;;;;;;;102.70;90.38;;;;;;;;;;10414658;27;20067;-62
2023/07/29 17:28:18;;;;;;;76.03;68.00;;;;;;;;;;10415916;27;20059;-62
2023/07/29 17:33:16;;;;;;;80.20;72.28;;;;;;;;;;10412670;27;20078;-63
2023/07/29 17:38:14;;;;;;;41.95;37.53;;;;;;;;;;10414724;27;20099;-62
2023/07/29 17:43:14;;;;;;;22.27;14.73;;;;;;;;;;10412472;27;20074;-62
2023/07/29 17:48:12;;;;;;;9.57;7.22;;;;;;;;;;10413774;27;20070;-61
2023/07/29 17:53:10;;;;;;;13.43;9.75;;;;;;;;;;10413012;27;20136;-62
2023/07/29 17:58:09;;;;;;;8.93;6.95;;;;;;;;;;10412933;27;20495;-62
2023/07/29 18:03:08;;;;;;;14.18;10.93;;;;;;;;;;10413026;27;20519;-63
2023/07/29 18:08:08;;;;;;;17.85;13.25;;;;;;;;;;10415407;27;20074;-62
2023/07/29 18:13:06;;;;;;;8.32;5.60;;;;;;;;;;10412927;27;20071;-62
2023/07/29 18:18:05;;;;;;;6.70;5.10;;;;;;;;;;10414062;27;20093;-63
2023/07/29 18:23:05;;;;;;;8.48;6.30;;;;;;;;;;10411418;27;20071;-63
2023/07/29 18:28:04;;;;;;;6.65;5.43;;;;;;;;;;10412230;27;20082;-62
2023/07/29 18:33:03;;;;;;;6.95;4.28;;;;;;;;;;10412348;27;20073;-63
2023/07/29 18:38:01;;;;;;;6.82;4.95;;;;;;;;;;10411886;28;20354;-62
2023/07/29 18:43:01;;;;;;;4.65;3.35;;;;;;;;;;10409640;28;20063;-62
2023/07/29 18:47:59;;;;;;;2.95;2.47;;;;;;;;;;10411660;28;20066;-62
2023/07/29 18:52:58;;;;;;;3.13;2.83;;;;;;;;;;10413767;27;20083;-63
2023/07/29 18:57:56;;;;;;;4.47;2.92;;;;;;;;;;10420262;27;20077;-62
2023/07/29 19:02:56;;;;;;;5.07;4.13;;;;;;;;;;10421310;27;20074;-62
2023/07/29 19:07:54;;;;;;;3.40;2.72;;;;;;;;;;10419309;27;20079;-62
2023/07/29 19:12:56;;;;;;;5.20;3.30;;;;;;;;;;10420633;27;20086;-63
2023/07/29 19:17:55;;;;;;;4.40;2.75;;;;;;;;;;10403824;27;20075;-62
2023/07/29 19:22:54;;;;;;;5.13;3.30;;;;;;;;;;10418671;27;20436;-62
2023/07/29 19:27:52;;;;;;;3.70;3.13;;;;;;;;;;10418628;27;20063;-63
2023/07/29 19:32:50;;;;;;;4.88;4.05;;;;;;;;;;10419534;27;20079;-64
2023/07/29 19:37:50;;;;;;;3.15;2.72;;;;;;;;;;10418843;27;20074;-62
2023/07/29 19:42:51;;;;;;;6.97;2.83;;;;;;;;;;10415135;27;20055;-62
2023/07/29 19:47:49;;;;;;;4.28;3.50;;;;;;;;;;10420541;27;20059;-62
2023/07/29 19:52:48;;;;;;;5.68;2.60;;;;;;;;;;10418460;27;20083;-60
2023/07/29 19:57:47;;;;;;;3.17;2.60;;;;;;;;;;10418216;27;20070;-64
2023/07/29 20:02:46;;;;;;;3.47;2.70;;;;;;;;;;10415659;27;20082;-63
2023/07/29 20:07:46;;;;;;;4.95;2.50;;;;;;;;;;10419698;27;20059;-63
2023/07/29 20:12:44;;;;;;;3.13;2.78;;;;;;;;;;10415857;27;20078;-62
2023/07/29 20:17:44;;;;;;;4.20;2.42;;;;;;;;;;10418522;27;20066;-63
2023/07/29 20:22:42;;;;;;;3.10;2.53;;;;;;;;;;10416284;27;20079;-62
2023/07/29 20:27:41;;;;;;;2.42;2.10;;;;;;;;;;10417693;27;20469;-62
2023/07/29 20:32:39;;;;;;;4.38;2.65;;;;;;;;;;10417501;27;20071;-63
2023/07/29 20:37:40;;;;;;;3.03;2.28;;;;;;;;;;10417693;27;20070;-62
2023/07/29 20:42:38;;;;;;;3.25;2.05;;;;;;;;;;10415514;27;20516;-62
2023/07/29 20:47:36;;;;;;;2.20;1.80;;;;;;;;;;10415028;27;20071;-62
2023/07/29 20:52:35;;;;;;;3.22;2.22;;;;;;;;;;10412380;27;20071;-63
2023/07/29 20:57:34;;;;;;;4.70;2.20;;;;;;;;;;10413605;27;20066;-61
2023/07/29 21:02:34;;;;;;;2.25;2.03;;;;;;;;;;10411971;27;20067;-61
2023/07/29 21:07:32;;;;;;;2.33;1.98;;;;;;;;;;10401776;27;20112;-61
2023/07/29 21:12:30;;;;;;;3.72;1.73;;;;;;;;;;10408062;27;20079;-63
2023/07/29 21:17:30;;;;;;;4.15;2.67;;;;;;;;;;10410233;27;20070;-61
2023/07/29 21:22:28;;;;;;;4.10;1.98;;;;;;;;;;10414261;27;20059;-61
2023/07/29 21:27:27;;;;;;;6.88;2.55;;;;;;;;;;10410905;27;20492;-61
2023/07/29 21:32:25;;;;;;;2.67;2.08;;;;;;;;;;10402483;27;20106;-61
2023/07/29 21:37:26;;;;;;;10.70;2.72;;;;;;;;;;10405480;27;20075;-62
2023/07/29 21:42:38;;;;;;;4.03;2.53;;;;;;;;;;10410598;27;20051;-62
2023/07/29 21:47:36;;;;;;;2.50;2.30;;;;;;;;;;10413760;27;20079;-62
2023/07/29 21:52:35;;;;;;;2.20;2.00;;;;;;;;;;10407622;27;20085;-62
2023/07/29 21:57:34;;;;;;;2.00;1.80;;;;;;;;;;10414799;27;20093;-62
2023/07/29 22:02:32;;;;;;;2.55;2.13;;;;;;;;;;10412779;27;20081;-62
2023/07/29 22:07:31;;;;;;;2.53;1.92;;;;;;;;;;10406312;27;20071;-62
2023/07/29 22:12:31;;;;;;;5.07;2.40;;;;;;;;;;10410798;27;20071;-62
2023/07/29 22:17:29;;;;;;;2.15;2.00;;;;;;;;;;10409269;27;20071;-63
2023/07/29 22:22:28;;;;;;;3.17;2.72;;;;;;;;;;10412802;27;20067;-62
2023/07/29 22:27:26;;;;;;;2.72;2.03;;;;;;;;;;10409584;27;20063;-62
2023/07/29 22:32:26;;;;;;;2.25;2.05;;;;;;;;;;10413034;27;20070;-62
2023/07/29 22:37:24;;;;;;;3.75;2.40;;;;;;;;;;10412172;27;20074;-61
2023/07/29 22:42:22;;;;;;;1.92;1.73;;;;;;;;;;10409335;28;20075;-63
2023/07/29 22:47:20;;;;;;;2.95;2.10;;;;;;;;;;10411038;28;20078;-63
2023/07/29 22:52:20;;;;;;;2.75;2.40;;;;;;;;;;10413420;28;20086;-62
2023/07/29 22:57:18;;;;;;;2.50;2.00;;;;;;;;;;10409620;28;20078;-62
2023/07/29 23:02:17;;;;;;;2.60;2.28;;;;;;;;;;10406713;28;20162;-63
2023/07/29 23:07:15;;;;;;;2.63;1.95;;;;;;;;;;10410174;28;20516;-63
2023/07/29 23:12:14;;;;;;;3.40;2.60;;;;;;;;;;10403589;28;20071;-62
2023/07/29 23:17:13;;;;;;;2.60;2.40;;;;;;;;;;10409060;28;20078;-62
2023/07/29 23:22:11;;;;;;;5.97;2.00;;;;;;;;;;10411073;28;20496;-63
2023/07/29 23:27:09;;;;;;;4.10;2.20;;;;;;;;;;10411357;28;20078;-62
2023/07/29 23:32:09;;;;;;;4.57;3.38;;;;;;;;;;10411912;28;20072;-63
2023/07/29 23:37:07;;;;;;;5.22;2.20;;;;;;;;;;10411442;28;20079;-62
2023/07/29 23:42:05;;;;;;;4.60;2.70;;;;;;;;;;10415768;27;20071;-61
2023/07/29 23:47:04;;;;;;;5.35;2.72;;;;;;;;;;10417320;27;20075;-61
2023/07/29 23:52:05;;;;;;;4.13;2.03;;;;;;;;;;10410972;27;20181;-62
2023/07/29 23:57:03;;;;;;;4.40;2.15;;;;;;;;;;10418602;27;20074;-62
